YBCG/OOL METAR and TAF weather

Enter ICAO airport designator
Station Type Date Time Source
YBCG METAR 2021/05/14 22:30 UTC NOAA

YBCG 142230Z AUTO 00000KT 9999 // NCD 17/12 Q1015 RF00.0/000.2


Station Type Date Time Source
YBCG Decoded METAR 2021/05/14 22:30 UTC NOAA

Coolangatta Airport Aws, Australia (YBCG) 28-10S 153-30E 6M
May 14, 2021 - 06:30 PM EDT / 2021.05.14 2230 UTC
Wind: Calm:0
Visibility: greater than 7 mile(s):0
Temperature: 62 F (17 C)
Dew Point: 53 F (12 C)
Relative Humidity: 72%
Pressure (altimeter): 29.97 in. Hg (1015 hPa)
ob: YBCG 142230Z AUTO 00000KT 9999 // NCD 17/12 Q1015 RF00.0/000.2
cycle: 22

Station Type Date Time Source
YBCG TAF 2021/05/14 21:21 UTC NOAA

TAF
AMD TAF YBCG 142020Z 1421/1518 24006KT CAVOK
FM150000 02010KT CAVOK
FM150900 22012KT CAVOK

Example: see airport list